sensor_id;sensor_type;location;lat;lon;timestamp;pressure;altitude;pressure_sealevel;temperature;humidity
55187;BME280;55457;52.002;5.464;2022-09-01T00:01:18;101985.25;;;23.95;43.21
55187;BME280;55457;52.002;5.464;2022-09-01T00:03:49;101984.16;;;23.96;43.19
55187;BME280;55457;52.002;5.464;2022-09-01T00:06:18;101986.06;;;23.95;43.22
55187;BME280;55457;52.002;5.464;2022-09-01T00:08:52;101982.75;;;23.93;43.09
55187;BME280;55457;52.002;5.464;2022-09-01T00:11:20;101983.59;;;23.94;43.45
55187;BME280;55457;52.002;5.464;2022-09-01T00:13:46;101979.22;;;23.93;43.24
55187;BME280;55457;52.002;5.464;2022-09-01T00:16:13;101977.56;;;23.92;43.43
55187;BME280;55457;52.002;5.464;2022-09-01T00:18:40;101974.25;;;23.90;43.49
55187;BME280;55457;52.002;5.464;2022-09-01T00:21:10;101976.97;;;23.90;43.38
55187;BME280;55457;52.002;5.464;2022-09-01T00:23:35;101972.34;;;23.90;43.35
55187;BME280;55457;52.002;5.464;2022-09-01T00:26:02;101976.97;;;23.90;43.37
55187;BME280;55457;52.002;5.464;2022-09-01T00:28:27;101974.25;;;23.90;43.52
55187;BME280;55457;52.002;5.464;2022-09-01T00:30:53;101973.41;;;23.89;43.66
55187;BME280;55457;52.002;5.464;2022-09-01T00:33:18;101969.88;;;23.89;43.60
55187;BME280;55457;52.002;5.464;2022-09-01T00:35:44;101968.22;;;23.88;43.68
55187;BME280;55457;52.002;5.464;2022-09-01T00:38:09;101968.22;;;23.88;43.23
55187;BME280;55457;52.002;5.464;2022-09-01T00:40:35;101972.84;;;23.87;43.40
55187;BME280;55457;52.002;5.464;2022-09-01T00:43:16;101966.56;;;23.87;43.50
55187;BME280;55457;52.002;5.464;2022-09-01T00:45:43;101965.97;;;23.85;43.40
55187;BME280;55457;52.002;5.464;2022-09-01T00:48:08;101960.53;;;23.85;43.43
55187;BME280;55457;52.002;5.464;2022-09-01T00:50:34;101963.25;;;23.85;43.63
55187;BME280;55457;52.002;5.464;2022-09-01T00:53:00;101950.94;;;23.82;43.57
55187;BME280;55457;52.002;5.464;2022-09-01T00:55:29;101955.31;;;23.83;43.85
55187;BME280;55457;52.002;5.464;2022-09-01T00:57:57;101959.94;;;23.83;43.83
55187;BME280;55457;52.002;5.464;2022-09-01T01:00:26;101953.69;;;23.82;44.01
55187;BME280;55457;52.002;5.464;2022-09-01T01:02:53;101955.56;;;23.82;43.75
55187;BME280;55457;52.002;5.464;2022-09-01T01:05:42;101959.38;;;23.81;43.83
55187;BME280;55457;52.002;5.464;2022-09-01T01:08:11;101950.34;;;23.80;43.97
55187;BME280;55457;52.002;5.464;2022-09-01T01:10:38;101955.22;;;23.78;43.59
55187;BME280;55457;52.002;5.464;2022-09-01T01:13:13;101957.94;;;23.78;43.75
55187;BME280;55457;52.002;5.464;2022-09-01T01:15:40;101953.31;;;23.79;43.84
55187;BME280;55457;52.002;5.464;2022-09-01T01:18:13;101951.66;;;23.78;43.93
55187;BME280;55457;52.002;5.464;2022-09-01T01:20:39;101952.75;;;23.77;43.83
55187;BME280;55457;52.002;5.464;2022-09-01T01:23:33;101948.38;;;23.76;43.70
55187;BME280;55457;52.002;5.464;2022-09-01T01:26:03;101948.38;;;23.76;43.93
55187;BME280;55457;52.002;5.464;2022-09-01T01:28:34;101942.06;;;23.75;43.97
55187;BME280;55457;52.002;5.464;2022-09-01T01:33:35;101939.59;;;23.74;44.00
55187;BME280;55457;52.002;5.464;2022-09-01T01:36:07;101939.03;;;23.72;43.98
55187;BME280;55457;52.002;5.464;2022-09-01T01:38:38;101936.31;;;23.72;43.77
55187;BME280;55457;52.002;5.464;2022-09-01T01:41:04;101940.66;;;23.73;43.91
55187;BME280;55457;52.002;5.464;2022-09-01T01:43:30;101942.81;;;23.71;43.72
55187;BME280;55457;52.002;5.464;2022-09-01T01:45:56;101940.91;;;23.71;44.19
55187;BME280;55457;52.002;5.464;2022-09-01T01:48:28;101951.81;;;23.71;44.07
55187;BME280;55457;52.002;5.464;2022-09-01T01:50:54;101945.53;;;23.71;43.86
55187;BME280;55457;52.002;5.464;2022-09-01T01:53:22;101945.53;;;23.71;43.75
55187;BME280;55457;52.002;5.464;2022-09-01T01:55:48;101942.81;;;23.71;43.86
55187;BME280;55457;52.002;5.464;2022-09-01T01:58:18;101946.38;;;23.71;44.01
55187;BME280;55457;52.002;5.464;2022-09-01T02:00:45;101950.97;;;23.71;43.88
55187;BME280;55457;52.002;5.464;2022-09-01T02:03:15;101949.31;;;23.69;44.05
55187;BME280;55457;52.002;5.464;2022-09-01T02:05:48;101940.56;;;23.67;43.80
55187;BME280;55457;52.002;5.464;2022-09-01T02:08:15;101941.13;;;23.69;43.90
55187;BME280;55457;52.002;5.464;2022-09-01T02:10:48;101944.94;;;23.68;43.98
55187;BME280;55457;52.002;5.464;2022-09-01T02:13:19;101944.94;;;23.68;44.07
55187;BME280;55457;52.002;5.464;2022-09-01T02:15:52;101947.91;;;23.67;44.15
55187;BME280;55457;52.002;5.464;2022-09-01T02:18:21;101948.72;;;23.67;43.88
55187;BME280;55457;52.002;5.464;2022-09-01T02:20:50;101951.44;;;23.67;44.14
55187;BME280;55457;52.002;5.464;2022-09-01T02:23:20;101951.44;;;23.67;44.14
55187;BME280;55457;52.002;5.464;2022-09-01T02:25:51;101944.34;;;23.66;44.13
55187;BME280;55457;52.002;5.464;2022-09-01T02:28:19;101944.34;;;23.66;43.96
55187;BME280;55457;52.002;5.464;2022-09-01T02:30:49;101945.19;;;23.67;43.74
55187;BME280;55457;52.002;5.464;2022-09-01T02:33:16;101944.34;;;23.66;43.87
55187;BME280;55457;52.002;5.464;2022-09-01T02:35:46;101946.00;;;23.67;43.79
55187;BME280;55457;52.002;5.464;2022-09-01T02:38:12;101937.25;;;23.65;43.78
55187;BME280;55457;52.002;5.464;2022-09-01T02:40:39;101935.38;;;23.66;44.15
55187;BME280;55457;52.002;5.464;2022-09-01T02:43:05;101938.09;;;23.66;43.82
55187;BME280;55457;52.002;5.464;2022-09-01T02:45:32;101938.09;;;23.66;43.67
55187;BME280;55457;52.002;5.464;2022-09-01T02:47:58;101942.72;;;23.65;43.97
55187;BME280;55457;52.002;5.464;2022-09-01T02:50:24;101935.59;;;23.64;43.88
55187;BME280;55457;52.002;5.464;2022-09-01T02:52:51;101944.59;;;23.65;44.02
55187;BME280;55457;52.002;5.464;2022-09-01T02:55:18;101941.03;;;23.64;43.74
55187;BME280;55457;52.002;5.464;2022-09-01T02:57:52;101940.00;;;23.65;43.87
55187;BME280;55457;52.002;5.464;2022-09-01T03:00:23;101941.03;;;23.64;44.19
55187;BME280;55457;52.002;5.464;2022-09-01T03:02:57;101934.75;;;23.64;43.93
55187;BME280;55457;52.002;5.464;2022-09-01T03:05:26;101930.16;;;23.64;43.93
55187;BME280;55457;52.002;5.464;2022-09-01T03:07:55;101937.25;;;23.65;43.77
55187;BME280;55457;52.002;5.464;2022-09-01T03:10:24;101939.38;;;23.63;43.74
55187;BME280;55457;52.002;5.464;2022-09-01T03:12:53;101933.94;;;23.63;44.00
55187;BME280;55457;52.002;5.464;2022-09-01T03:15:19;101932.25;;;23.62;43.59
55187;BME280;55457;52.002;5.464;2022-09-01T03:17:45;101934.97;;;23.62;43.84
55187;BME280;55457;52.002;5.464;2022-09-01T03:20:12;101924.94;;;23.63;43.65
55187;BME280;55457;52.002;5.464;2022-09-01T03:22:38;101936.06;;;23.61;43.66
55187;BME280;55457;52.002;5.464;2022-09-01T03:25:03;101926.81;;;23.62;43.66
55187;BME280;55457;52.002;5.464;2022-09-01T03:27:29;101936.06;;;23.61;43.66
55187;BME280;55457;52.002;5.464;2022-09-01T03:29:55;101931.69;;;23.60;43.48
55187;BME280;55457;52.002;5.464;2022-09-01T03:32:20;101927.28;;;23.59;43.50
55187;BME280;55457;52.002;5.464;2022-09-01T03:34:46;101924.56;;;23.59;43.55
55187;BME280;55457;52.002;5.464;2022-09-01T03:37:11;101927.28;;;23.59;43.75
55187;BME280;55457;52.002;5.464;2022-09-01T03:39:37;101925.63;;;23.58;43.46
55187;BME280;55457;52.002;5.464;2022-09-01T03:42:03;101921.25;;;23.57;43.82
55187;BME280;55457;52.002;5.464;2022-09-01T03:44:28;101917.72;;;23.57;43.53
55187;BME280;55457;52.002;5.464;2022-09-01T03:46:54;101917.72;;;23.57;43.69
55187;BME280;55457;52.002;5.464;2022-09-01T03:49:22;101922.34;;;23.56;43.54
55187;BME280;55457;52.002;5.464;2022-09-01T03:51:49;101911.44;;;23.56;43.54
55187;BME280;55457;52.002;5.464;2022-09-01T03:54:18;101922.34;;;23.56;43.54
55187;BME280;55457;52.002;5.464;2022-09-01T03:56:44;101916.28;;;23.54;43.57
55187;BME280;55457;52.002;5.464;2022-09-01T03:59:10;101927.16;;;23.54;43.38
55187;BME280;55457;52.002;5.464;2022-09-01T04:01:41;101924.44;;;23.54;43.58
55187;BME280;55457;52.002;5.464;2022-09-01T04:04:10;101913.56;;;23.54;43.68
55187;BME280;55457;52.002;5.464;2022-09-01T04:06:41;101919.84;;;23.55;43.41
55187;BME280;55457;52.002;5.464;2022-09-01T04:09:06;101919.25;;;23.53;43.33
55187;BME280;55457;52.002;5.464;2022-09-01T04:11:32;101913.00;;;23.52;43.58
55187;BME280;55457;52.002;5.464;2022-09-01T04:13:58;101916.53;;;23.53;43.47
55187;BME280;55457;52.002;5.464;2022-09-01T04:16:25;101911.34;;;23.51;43.27
55187;BME280;55457;52.002;5.464;2022-09-01T04:19:10;101906.16;;;23.50;43.60
55187;BME280;55457;52.002;5.464;2022-09-01T04:21:50;101906.97;;;23.50;43.61
55187;BME280;55457;52.002;5.464;2022-09-01T04:24:17;101909.91;;;23.49;43.44
55187;BME280;55457;52.002;5.464;2022-09-01T04:26:43;101914.53;;;23.48;43.60
55187;BME280;55457;52.002;5.464;2022-09-01T04:29:11;101908.03;;;23.49;43.36
55187;BME280;55457;52.002;5.464;2022-09-01T04:31:37;101915.34;;;23.49;43.60
55187;BME280;55457;52.002;5.464;2022-09-01T04:34:04;101911.81;;;23.48;43.21
55187;BME280;55457;52.002;5.464;2022-09-01T04:36:41;101914.53;;;23.48;43.15
55187;BME280;55457;52.002;5.464;2022-09-01T04:39:08;101913.69;;;23.48;43.43
55187;BME280;55457;52.002;5.464;2022-09-01T04:41:37;101916.19;;;23.49;43.29
55187;BME280;55457;52.002;5.464;2022-09-01T04:44:04;101910.97;;;23.48;43.49
55187;BME280;55457;52.002;5.464;2022-09-01T04:46:33;101909.09;;;23.48;43.37
55187;BME280;55457;52.002;5.464;2022-09-01T04:49:03;101907.44;;;23.47;43.45
55187;BME280;55457;52.002;5.464;2022-09-01T04:51:39;101911.22;;;23.46;43.13
55187;BME280;55457;52.002;5.464;2022-09-01T04:54:05;101911.22;;;23.46;43.11
55187;BME280;55457;52.002;5.464;2022-09-01T04:56:37;101919.03;;;23.42;43.14
55187;BME280;55457;52.002;5.464;2022-09-01T04:59:02;101919.75;;;23.38;43.26
55187;BME280;55457;52.002;5.464;2022-09-01T05:01:32;101921.06;;;23.35;43.15
55187;BME280;55457;52.002;5.464;2022-09-01T05:04:10;101913.13;;;23.34;43.25
55187;BME280;55457;52.002;5.464;2022-09-01T05:06:41;101914.78;;;23.35;43.21
55187;BME280;55457;52.002;5.464;2022-09-01T05:09:08;101917.25;;;23.36;43.14
55187;BME280;55457;52.002;5.464;2022-09-01T05:11:35;101914.28;;;23.38;43.30
55187;BME280;55457;52.002;5.464;2022-09-01T05:14:02;101922.47;;;23.38;43.32
55187;BME280;55457;52.002;5.464;2022-09-01T05:16:29;101917.63;;;23.40;43.18
55187;BME280;55457;52.002;5.464;2022-09-01T05:18:55;101928.50;;;23.40;43.32
55187;BME280;55457;52.002;5.464;2022-09-01T05:21:23;101921.75;;;23.42;43.19
55187;BME280;55457;52.002;5.464;2022-09-01T05:23:55;101929.91;;;23.42;43.14
55187;BME280;55457;52.002;5.464;2022-09-01T05:26:27;101923.41;;;23.43;43.27
55187;BME280;55457;52.002;5.464;2022-09-01T05:28:58;101925.28;;;23.43;42.92
55187;BME280;55457;52.002;5.464;2022-09-01T05:31:27;101923.41;;;23.43;43.30
55187;BME280;55457;52.002;5.464;2022-09-01T05:33:54;101921.53;;;23.44;42.88
55187;BME280;55457;52.002;5.464;2022-09-01T05:36:22;101928.00;;;23.43;42.96
55187;BME280;55457;52.002;5.464;2022-09-01T05:38:49;101922.56;;;23.43;43.17
55187;BME280;55457;52.002;5.464;2022-09-01T05:41:18;101926.97;;;23.44;42.87
55187;BME280;55457;52.002;5.464;2022-09-01T05:43:46;101925.06;;;23.44;43.09
55187;BME280;55457;52.002;5.464;2022-09-01T05:46:17;101918.81;;;23.44;42.90
55187;BME280;55457;52.002;5.464;2022-09-01T05:48:46;101923.06;;;23.40;42.89
55187;BME280;55457;52.002;5.464;2022-09-01T05:51:15;101924.72;;;23.41;42.83
55187;BME280;55457;52.002;5.464;2022-09-01T05:53:44;101924.72;;;23.41;42.66
55187;BME280;55457;52.002;5.464;2022-09-01T05:56:10;101937.75;;;23.39;42.74
55187;BME280;55457;52.002;5.464;2022-09-01T05:58:38;101929.78;;;23.37;42.96
55187;BME280;55457;52.002;5.464;2022-09-01T06:01:05;101924.34;;;23.37;42.55
55187;BME280;55457;52.002;5.464;2022-09-01T06:03:31;101927.91;;;23.38;42.88
55187;BME280;55457;52.002;5.464;2022-09-01T06:06:04;101929.34;;;23.40;42.74
55187;BME280;55457;52.002;5.464;2022-09-01T06:08:33;101931.22;;;23.40;42.69
55187;BME280;55457;52.002;5.464;2022-09-01T06:11:00;101934.78;;;23.40;42.29
55187;BME280;55457;52.002;5.464;2022-09-01T06:13:25;101942.09;;;23.40;42.61
55187;BME280;55457;52.002;5.464;2022-09-01T06:15:51;101936.88;;;23.38;42.32
55187;BME280;55457;52.002;5.464;2022-09-01T06:18:18;101932.31;;;23.39;42.74
55187;BME280;55457;52.002;5.464;2022-09-01T06:20:46;101937.75;;;23.39;42.52
55187;BME280;55457;52.002;5.464;2022-09-01T06:23:13;101932.75;;;23.36;42.44
55187;BME280;55457;52.002;5.464;2022-09-01T06:25:43;101931.09;;;23.35;42.49
55187;BME280;55457;52.002;5.464;2022-09-01T06:28:14;101936.56;;;23.35;42.58
55187;BME280;55457;52.002;5.464;2022-09-01T06:30:40;101942.44;;;23.32;42.13
55187;BME280;55457;52.002;5.464;2022-09-01T06:33:07;101932.53;;;23.26;42.64
55187;BME280;55457;52.002;5.464;2022-09-01T06:35:34;101943.16;;;23.27;42.49
55187;BME280;55457;52.002;5.464;2022-09-01T06:38:01;101944.81;;;23.28;42.59
55187;BME280;55457;52.002;5.464;2022-09-01T06:40:27;101948.84;;;23.26;42.83
55187;BME280;55457;52.002;5.464;2022-09-01T06:42:52;101957.00;;;23.26;42.46
55187;BME280;55457;52.002;5.464;2022-09-01T06:45:21;101950.25;;;23.28;42.83
55187;BME280;55457;52.002;5.464;2022-09-01T06:47:48;101952.75;;;23.30;42.60
55187;BME280;55457;52.002;5.464;2022-09-01T06:50:17;101953.81;;;23.29;42.62
55187;BME280;55457;52.002;5.464;2022-09-01T06:52:44;101953.34;;;23.32;42.72
55187;BME280;55457;52.002;5.464;2022-09-01T06:55:11;101954.41;;;23.31;42.81
55187;BME280;55457;52.002;5.464;2022-09-01T06:57:38;101955.94;;;23.27;42.47
55187;BME280;55457;52.002;5.464;2022-09-01T07:00:10;101962.56;;;23.31;42.64
55187;BME280;55457;52.002;5.464;2022-09-01T07:02:53;101956.06;;;23.32;42.59
55187;BME280;55457;52.002;5.464;2022-09-01T07:05:20;101956.66;;;23.34;42.59
55187;BME280;55457;52.002;5.464;2022-09-01T07:07:51;101959.97;;;23.36;42.62
55187;BME280;55457;52.002;5.464;2022-09-01T07:10:20;101965.75;;;23.39;43.21
55187;BME280;55457;52.002;5.464;2022-09-01T07:12:50;101959.00;;;23.42;43.75
55187;BME280;55457;52.002;5.464;2022-09-01T07:15:16;101957.72;;;23.44;43.92
55187;BME280;55457;52.002;5.464;2022-09-01T07:17:48;101954.75;;;23.46;43.62
55187;BME280;55457;52.002;5.464;2022-09-01T07:20:15;101951.78;;;23.48;43.63
55187;BME280;55457;52.002;5.464;2022-09-01T07:22:41;101963.50;;;23.48;43.87
55187;BME280;55457;52.002;5.464;2022-09-01T07:25:07;101958.66;;;23.50;43.88
55187;BME280;55457;52.002;5.464;2022-09-01T07:27:37;101961.97;;;23.52;43.80
55187;BME280;55457;52.002;5.464;2022-09-01T07:30:04;101963.41;;;23.55;43.47
55187;BME280;55457;52.002;5.464;2022-09-01T07:32:33;101954.38;;;23.54;43.33
55187;BME280;55457;52.002;5.464;2022-09-01T07:34:59;101969.66;;;23.55;43.67
55187;BME280;55457;52.002;5.464;2022-09-01T07:37:24;101965.03;;;23.56;43.66
55187;BME280;55457;52.002;5.464;2022-09-01T07:42:18;101959.59;;;23.56;43.42
55187;BME280;55457;52.002;5.464;2022-09-01T07:44:43;101955.56;;;23.58;43.38
55187;BME280;55457;52.002;5.464;2022-09-01T07:47:09;101967.88;;;23.61;43.42
55187;BME280;55457;52.002;5.464;2022-09-01T07:49:35;101957.81;;;23.61;43.27
55187;BME280;55457;52.002;5.464;2022-09-01T07:52:03;101966.59;;;23.63;42.96
55187;BME280;55457;52.002;5.464;2022-09-01T07:54:29;101972.66;;;23.65;43.24
55187;BME280;55457;52.002;5.464;2022-09-01T07:56:54;101965.88;;;23.68;43.13
55187;BME280;55457;52.002;5.464;2022-09-01T07:59:20;101963.75;;;23.70;43.02
55187;BME280;55457;52.002;5.464;2022-09-01T08:01:46;101964.34;;;23.72;43.15
55187;BME280;55457;52.002;5.464;2022-09-01T08:04:11;101966.56;;;23.75;42.89
55187;BME280;55457;52.002;5.464;2022-09-01T08:06:37;101961.13;;;23.75;42.88
55187;BME280;55457;52.002;5.464;2022-09-01T08:09:03;101964.69;;;23.76;42.83
55187;BME280;55457;52.002;5.464;2022-09-01T08:11:31;101962.56;;;23.78;42.75
55187;BME280;55457;52.002;5.464;2022-09-01T08:13:58;101965.84;;;23.80;42.83
55187;BME280;55457;52.002;5.464;2022-09-01T08:16:25;101961.59;;;23.84;42.77
55187;BME280;55457;52.002;5.464;2022-09-01T08:18:51;101962.41;;;23.84;42.90
55187;BME280;55457;52.002;5.464;2022-09-01T08:21:20;101961.94;;;23.87;42.73
55187;BME280;55457;52.002;5.464;2022-09-01T08:23:48;101963.34;;;23.90;42.54
55187;BME280;55457;52.002;5.464;2022-09-01T08:26:16;101965.59;;;23.93;42.30
55187;BME280;55457;52.002;5.464;2022-09-01T08:28:42;101971.41;;;23.97;42.23
55187;BME280;55457;52.002;5.464;2022-09-01T08:31:10;101968.44;;;23.98;42.43
55187;BME280;55457;52.002;5.464;2022-09-01T08:33:37;101967.38;;;23.99;42.01
55187;BME280;55457;52.002;5.464;2022-09-01T08:36:03;101969.63;;;24.02;42.08
55187;BME280;55457;52.002;5.464;2022-09-01T08:38:30;101973.72;;;24.05;42.21
55187;BME280;55457;52.002;5.464;2022-09-01T08:40:57;101965.91;;;24.08;41.70
55187;BME280;55457;52.002;5.464;2022-09-01T08:46:12;101951.81;;;24.11;41.61
55187;BME280;55457;52.002;5.464;2022-09-01T08:48:51;101957.59;;;24.15;41.61
55187;BME280;55457;52.002;5.464;2022-09-01T08:51:39;101956.31;;;24.17;41.52
55187;BME280;55457;52.002;5.464;2022-09-01T08:54:16;101952.00;;;24.21;41.47
55187;BME280;55457;52.002;5.464;2022-09-01T08:56:46;101953.69;;;24.23;41.50
55187;BME280;55457;52.002;5.464;2022-09-01T08:59:17;101947.72;;;24.26;41.30
55187;BME280;55457;52.002;5.464;2022-09-01T09:04:59;101954.72;;;24.33;41.40
55187;BME280;55457;52.002;5.464;2022-09-01T09:07:53;101948.78;;;24.36;41.44
55187;BME280;55457;52.002;5.464;2022-09-01T09:10:33;101960.03;;;24.40;41.23
55187;BME280;55457;52.002;5.464;2022-09-01T09:15:59;101951.69;;;24.46;40.94
55187;BME280;55457;52.002;5.464;2022-09-01T09:18:49;101949.31;;;24.50;41.28
55187;BME280;55457;52.002;5.464;2022-09-01T09:21:40;101945.03;;;24.54;41.17
55187;BME280;55457;52.002;5.464;2022-09-01T09:24:10;101935.28;;;24.58;40.95
55187;BME280;55457;52.002;5.464;2022-09-01T09:26:37;101939.44;;;24.61;40.80
55187;BME280;55457;52.002;5.464;2022-09-01T09:29:02;101938.69;;;24.65;40.81
55187;BME280;55457;52.002;5.464;2022-09-01T09:31:36;101927.28;;;24.68;40.73
55187;BME280;55457;52.002;5.464;2022-09-01T09:34:34;101920.28;;;24.72;40.60
55187;BME280;55457;52.002;5.464;2022-09-01T09:37:29;101925.56;;;24.79;40.62
55187;BME280;55457;52.002;5.464;2022-09-01T09:40:09;101923.72;;;24.85;40.56
55187;BME280;55457;52.002;5.464;2022-09-01T09:42:40;101924.91;;;24.89;40.79
55187;BME280;55457;52.002;5.464;2022-09-01T09:45:20;101923.34;;;24.93;40.35
55187;BME280;55457;52.002;5.464;2022-09-01T09:47:46;101917.13;;;24.97;40.33
55187;BME280;55457;52.002;5.464;2022-09-01T09:50:19;101919.94;;;25.03;40.34
55187;BME280;55457;52.002;5.464;2022-09-01T09:52:46;101914.59;;;25.08;40.18
55187;BME280;55457;52.002;5.464;2022-09-01T09:57:49;101911.19;;;25.17;39.60
55187;BME280;55457;52.002;5.464;2022-09-01T10:03:14;101914.31;;;25.26;40.08
55187;BME280;55457;52.002;5.464;2022-09-01T10:05:42;101911.91;;;25.30;40.05
55187;BME280;55457;52.002;5.464;2022-09-01T10:08:11;101909.53;;;25.33;39.99
55187;BME280;55457;52.002;5.464;2022-09-01T10:10:44;101906.88;;;25.38;39.77
55187;BME280;55457;52.002;5.464;2022-09-01T10:13:15;101901.72;;;25.42;39.36
55187;BME280;55457;52.002;5.464;2022-09-01T10:15:53;101897.66;;;25.44;38.99
55187;BME280;55457;52.002;5.464;2022-09-01T10:18:22;101900.13;;;25.46;39.35
55187;BME280;55457;52.002;5.464;2022-09-01T10:20:55;101896.91;;;25.49;39.06
55187;BME280;55457;52.002;5.464;2022-09-01T10:26:01;101903.53;;;25.53;38.26
55187;BME280;55457;52.002;5.464;2022-09-01T10:28:28;101897.53;;;25.56;37.65
55187;BME280;55457;52.002;5.464;2022-09-01T10:30:56;101903.31;;;25.60;37.98
55187;BME280;55457;52.002;5.464;2022-09-01T10:33:23;101898.19;;;25.63;38.09
55187;BME280;55457;52.002;5.464;2022-09-01T10:35:51;101905.03;;;25.66;37.95
55187;BME280;55457;52.002;5.464;2022-09-01T10:38:27;101904.53;;;25.69;37.41
55187;BME280;55457;52.002;5.464;2022-09-01T10:40:55;101898.28;;;25.73;37.19
55187;BME280;55457;52.002;5.464;2022-09-01T10:43:45;101891.28;;;25.77;37.43
55187;BME280;55457;52.002;5.464;2022-09-01T10:48:45;101883.47;;;25.86;37.14
55187;BME280;55457;52.002;5.464;2022-09-01T10:53:39;101880.53;;;25.93;36.86
55187;BME280;55457;52.002;5.464;2022-09-01T10:56:17;101878.41;;;25.95;36.79
55187;BME280;55457;52.002;5.464;2022-09-01T11:15:34;101883.03;;;26.21;36.21
55187;BME280;55457;52.002;5.464;2022-09-01T11:18:01;101873.22;;;26.25;35.45
55187;BME280;55457;52.002;5.464;2022-09-01T11:20:31;101872.72;;;26.28;36.14
55187;BME280;55457;52.002;5.464;2022-09-01T11:25:39;101872.50;;;26.08;35.83
55187;BME280;55457;52.002;5.464;2022-09-01T11:30:37;101865.75;;;25.89;35.63
55187;BME280;55457;52.002;5.464;2022-09-01T11:35:45;101870.53;;;25.76;35.73
55187;BME280;55457;52.002;5.464;2022-09-01T11:38:13;101860.59;;;25.70;35.79
55187;BME280;55457;52.002;5.464;2022-09-01T11:40:40;101867.66;;;25.66;34.66
55187;BME280;55457;52.002;5.464;2022-09-01T11:43:13;101858.63;;;25.66;35.15
55187;BME280;55457;52.002;5.464;2022-09-01T11:45:52;101856.66;;;25.61;35.53
55187;BME280;55457;52.002;5.464;2022-09-01T11:48:20;101853.88;;;25.56;35.79
55187;BME280;55457;52.002;5.464;2022-09-01T11:50:56;101855.44;;;25.52;35.13
55187;BME280;55457;52.002;5.464;2022-09-01T11:53:22;101851.84;;;25.46;35.38
55187;BME280;55457;52.002;5.464;2022-09-01T11:55:50;101856.41;;;25.41;34.97
55187;BME280;55457;52.002;5.464;2022-09-01T12:00:57;101840.56;;;25.38;34.74
55187;BME280;55457;52.002;5.464;2022-09-01T12:03:35;101836.75;;;25.39;34.62
55187;BME280;55457;52.002;5.464;2022-09-01T12:06:03;101834.56;;;25.41;34.96
55187;BME280;55457;52.002;5.464;2022-09-01T12:08:36;101833.50;;;25.42;35.29
55187;BME280;55457;52.002;5.464;2022-09-01T12:11:29;101822.00;;;25.40;35.35
55187;BME280;55457;52.002;5.464;2022-09-01T12:16:20;101844.03;;;25.33;34.77
55187;BME280;55457;52.002;5.464;2022-09-01T12:18:51;101832.31;;;25.33;35.50
55187;BME280;55457;52.002;5.464;2022-09-01T12:21:29;101827.34;;;25.30;35.10
55187;BME280;55457;52.002;5.464;2022-09-01T12:24:17;101831.72;;;25.31;35.06
55187;BME280;55457;52.002;5.464;2022-09-01T12:26:44;101828.97;;;25.31;35.33
55187;BME280;55457;52.002;5.464;2022-09-01T12:29:11;101831.16;;;25.29;35.69
55187;BME280;55457;52.002;5.464;2022-09-01T12:31:40;101827.84;;;25.27;35.30
55187;BME280;55457;52.002;5.464;2022-09-01T12:34:23;101827.53;;;25.23;35.29
55187;BME280;55457;52.002;5.464;2022-09-01T12:37:17;101826.72;;;25.22;34.47
55187;BME280;55457;52.002;5.464;2022-09-01T12:39:55;101831.66;;;25.25;34.86
55187;BME280;55457;52.002;5.464;2022-09-01T12:42:29;101821.88;;;25.30;35.00
55187;BME280;55457;52.002;5.464;2022-09-01T12:49:59;101816.91;;;25.27;35.18
55187;BME280;55457;52.002;5.464;2022-09-01T12:52:27;101820.72;;;25.25;35.43
55187;BME280;55457;52.002;5.464;2022-09-01T12:57:30;101807.69;;;25.28;34.76
55187;BME280;55457;52.002;5.464;2022-09-01T13:00:28;101809.31;;;25.29;35.28
55187;BME280;55457;52.002;5.464;2022-09-01T13:05:34;101806.59;;;25.29;35.02
55187;BME280;55457;52.002;5.464;2022-09-01T13:08:03;101802.22;;;25.28;34.88
55187;BME280;55457;52.002;5.464;2022-09-01T13:10:35;101797.81;;;25.27;35.22
55187;BME280;55457;52.002;5.464;2022-09-01T13:13:02;101796.19;;;25.25;35.17
55187;BME280;55457;52.002;5.464;2022-09-01T13:15:28;101799.66;;;25.21;35.52
55187;BME280;55457;52.002;5.464;2022-09-01T13:17:55;101782.72;;;25.19;35.33
55187;BME280;55457;52.002;5.464;2022-09-01T13:20:20;101778.63;;;25.16;35.25
55187;BME280;55457;52.002;5.464;2022-09-01T13:22:45;101785.72;;;25.17;35.20
55187;BME280;55457;52.002;5.464;2022-09-01T13:25:13;101784.63;;;25.18;35.09
55187;BME280;55457;52.002;5.464;2022-09-01T13:27:42;101784.38;;;25.20;34.86
55187;BME280;55457;52.002;5.464;2022-09-01T13:30:12;101780.56;;;25.21;34.99
55187;BME280;55457;52.002;5.464;2022-09-01T13:32:39;101768.84;;;25.20;35.23
55187;BME280;55457;52.002;5.464;2022-09-01T13:35:05;101771.00;;;25.18;34.93
55187;BME280;55457;52.002;5.464;2022-09-01T13:37:31;101779.44;;;25.17;35.08
55187;BME280;55457;52.002;5.464;2022-09-01T13:39:56;101772.31;;;25.16;34.33
55187;BME280;55457;52.002;5.464;2022-09-01T13:42:22;101769.34;;;25.17;35.03
55187;BME280;55457;52.002;5.464;2022-09-01T13:44:47;101766.03;;;25.15;35.02
55187;BME280;55457;52.002;5.464;2022-09-01T13:47:13;101768.22;;;25.13;34.88
55187;BME280;55457;52.002;5.464;2022-09-01T13:49:38;101764.41;;;25.14;34.55
55187;BME280;55457;52.002;5.464;2022-09-01T13:52:04;101758.94;;;25.14;34.88
55187;BME280;55457;52.002;5.464;2022-09-01T13:54:29;101761.66;;;25.14;35.14
55187;BME280;55457;52.002;5.464;2022-09-01T13:56:55;101759.47;;;25.11;35.06
55187;BME280;55457;52.002;5.464;2022-09-01T13:59:20;101763.25;;;25.10;34.52
55187;BME280;55457;52.002;5.464;2022-09-01T14:01:45;101766.56;;;25.12;34.72
55187;BME280;55457;52.002;5.464;2022-09-01T14:04:10;101751.84;;;25.13;34.34
55187;BME280;55457;52.002;5.464;2022-09-01T14:06:41;101747.22;;;25.14;35.15
55187;BME280;55457;52.002;5.464;2022-09-01T14:09:09;101743.66;;;25.13;35.28